createdAt,value
2022-09-25T00:01:38.969Z,16.23
2022-09-25T00:06:41.498Z,17.83
2022-09-25T00:11:43.154Z,18.47
2022-09-25T00:16:44.863Z,17.23
2022-09-25T00:21:48.714Z,17.80
2022-09-25T00:26:50.413Z,18.07
2022-09-25T00:31:52.340Z,18.43
2022-09-25T00:36:53.964Z,18.60
2022-09-25T00:41:55.600Z,20.33
2022-09-25T00:46:57.435Z,19.43
2022-09-25T00:52:06.303Z,17.57
2022-09-25T00:57:10.038Z,18.50
2022-09-25T01:02:14.627Z,19.10
2022-09-25T01:07:16.770Z,19.20
2022-09-25T01:12:18.444Z,20.00
2022-09-25T01:17:28.287Z,19.03
2022-09-25T01:23:04.530Z,18.13
2022-09-25T01:28:36.930Z,18.47
2022-09-25T01:33:43.864Z,18.20
2022-09-25T01:38:47.427Z,18.30
2022-09-25T01:44:03.996Z,17.70
2022-09-25T01:49:08.225Z,19.60
2022-09-25T01:54:11.939Z,17.67
2022-09-25T01:59:35.610Z,18.10
2022-09-25T02:04:38.745Z,18.20
2022-09-25T02:09:54.869Z,18.30
2022-09-25T02:15:02.069Z,18.10
2022-09-25T02:20:22.867Z,18.47
2022-09-25T02:25:40.031Z,18.03
2022-09-25T02:30:41.779Z,18.87
2022-09-25T02:35:43.454Z,19.40
2022-09-25T02:41:02.254Z,19.57
2022-09-25T02:46:13.595Z,19.30
2022-09-25T02:51:40.859Z,18.97
2022-09-25T02:56:49.083Z,19.13
2022-09-25T03:01:50.816Z,19.00
2022-09-25T03:06:52.588Z,19.47
2022-09-25T03:11:55.070Z,20.10
2022-09-25T03:16:57.540Z,19.40
2022-09-25T03:21:59.234Z,19.00
2022-09-25T03:27:00.862Z,18.23
2022-09-25T03:32:02.890Z,17.33
2022-09-25T03:37:05.040Z,16.27
2022-09-25T03:42:06.675Z,16.87
2022-09-25T03:47:08.279Z,15.40
2022-09-25T03:52:14.511Z,16.73
2022-09-25T03:57:16.146Z,15.40
2022-09-25T04:02:17.821Z,14.87
2022-09-25T04:07:19.467Z,15.33
2022-09-25T04:12:21.274Z,14.70
2022-09-25T04:17:22.886Z,15.10
2022-09-25T04:22:24.680Z,16.10
2022-09-25T04:27:27.816Z,15.27
2022-09-25T04:32:48.050Z,17.03
2022-09-25T04:37:49.719Z,17.57
2022-09-25T04:42:58.043Z,17.40
2022-09-25T04:48:00.048Z,18.50
2022-09-25T04:53:01.714Z,17.77
2022-09-25T04:58:03.337Z,20.63
2022-09-25T05:03:05.123Z,19.13
2022-09-25T05:08:07.375Z,19.47
2022-09-25T05:13:11.121Z,20.90
2022-09-25T05:18:17.504Z,20.40
2022-09-25T05:23:19.195Z,20.40
2022-09-25T05:28:20.826Z,21.07
2022-09-25T05:33:22.500Z,21.17
2022-09-25T05:38:24.127Z,20.47
2022-09-25T05:43:26.010Z,21.17
2022-09-25T05:48:27.664Z,20.97
2022-09-25T05:53:30.531Z,20.97
2022-09-25T05:58:33.669Z,19.77
2022-09-25T06:03:36.054Z,19.60
2022-09-25T06:08:37.681Z,18.87
2022-09-25T06:13:39.312Z,19.20
2022-09-25T06:18:40.933Z,15.60
2022-09-25T06:23:44.844Z,16.20
2022-09-25T06:28:46.567Z,16.93
2022-09-25T06:33:50.734Z,16.43
2022-09-25T06:38:55.722Z,16.37
2022-09-25T06:43:57.345Z,15.20
2022-09-25T06:48:58.995Z,15.30
2022-09-25T06:54:00.689Z,14.73
2022-09-25T06:59:02.363Z,16.23
2022-09-25T07:04:04.440Z,14.97
2022-09-25T07:09:06.206Z,14.77
2022-09-25T07:14:09.460Z,13.33
2022-09-25T07:19:11.097Z,14.07
2022-09-25T07:24:12.866Z,12.50
2022-09-25T07:29:14.523Z,11.50
2022-09-25T07:34:16.350Z,10.40
2022-09-25T07:39:18.803Z,9.43
2022-09-25T07:44:29.507Z,9.20
2022-09-25T07:49:34.896Z,8.67
2022-09-25T07:54:37.660Z,8.90
2022-09-25T07:59:39.288Z,9.57
2022-09-25T08:04:40.998Z,7.90
2022-09-25T08:09:42.708Z,7.67
2022-09-25T08:14:44.331Z,7.20
2022-09-25T08:19:46.221Z,7.60
2022-09-25T08:24:49.223Z,8.07
2022-09-25T08:29:50.914Z,7.37
2022-09-25T08:34:52.872Z,7.90
2022-09-25T08:39:54.532Z,7.60
2022-09-25T08:45:21.449Z,6.73
2022-09-25T08:50:24.548Z,7.50
2022-09-25T08:55:49.005Z,8.13
2022-09-25T09:00:54.509Z,8.03
2022-09-25T09:05:59.286Z,8.73
2022-09-25T09:11:18.731Z,8.40
2022-09-25T09:16:26.967Z,9.20
2022-09-25T09:21:38.996Z,10.00
2022-09-25T09:26:52.665Z,11.80
2022-09-25T09:32:16.627Z,11.50
2022-09-25T09:37:22.894Z,12.57
2022-09-25T09:42:44.391Z,11.57
2022-09-25T09:48:04.038Z,12.60
2022-09-25T09:53:40.276Z,12.97
2022-09-25T09:58:50.508Z,12.37
2022-09-25T10:04:10.683Z,13.73
2022-09-25T10:09:14.665Z,10.67
2022-09-25T10:14:21.752Z,10.57
2022-09-25T10:19:24.930Z,10.50
2022-09-25T10:24:51.247Z,9.93
2022-09-25T10:30:22.357Z,9.23
2022-09-25T10:35:29.657Z,8.50
2022-09-25T10:40:35.895Z,8.83
2022-09-25T10:45:40.588Z,9.40
2022-09-25T10:50:42.927Z,8.10
2022-09-25T10:55:46.229Z,9.40
2022-09-25T11:00:51.597Z,8.90
2022-09-25T11:06:20.813Z,8.70
2022-09-25T11:11:26.872Z,9.20
2022-09-25T11:17:08.203Z,7.80
2022-09-25T11:22:26.539Z,8.60
2022-09-25T11:27:45.167Z,7.90
2022-09-25T11:32:58.719Z,8.73
2022-09-25T11:38:45.147Z,8.10
2022-09-25T11:44:05.920Z,8.23
2022-09-25T11:49:19.041Z,7.27
2022-09-25T11:54:41.203Z,7.60
2022-09-25T12:00:06.982Z,8.20
2022-09-25T12:05:40.732Z,7.20
2022-09-25T12:10:56.405Z,6.57
2022-09-25T12:16:02.688Z,6.47
2022-09-25T12:21:10.544Z,12.70
2022-09-25T12:26:27.341Z,6.07
2022-09-25T12:31:31.476Z,5.17
2022-09-25T12:37:01.451Z,4.70
2022-09-25T12:42:09.955Z,5.23
2022-09-25T12:47:40.393Z,5.10
2022-09-25T12:53:21.582Z,5.47
2022-09-25T12:58:41.436Z,5.27
2022-09-25T13:04:00.914Z,5.50
2022-09-25T13:09:17.265Z,6.10
2022-09-25T13:14:39.905Z,6.23
2022-09-25T13:19:41.683Z,7.07
2022-09-25T13:24:45.208Z,7.00
2022-09-25T13:29:52.335Z,8.10
2022-09-25T13:35:00.397Z,7.77
2022-09-25T13:40:30.724Z,7.97
2022-09-25T13:45:34.237Z,6.70
2022-09-25T13:50:36.756Z,7.07
2022-09-25T13:55:42.439Z,6.50
2022-09-25T14:00:50.455Z,7.37
2022-09-25T14:05:52.442Z,6.30
2022-09-25T14:10:54.822Z,7.60
2022-09-25T14:15:58.454Z,5.40
2022-09-25T14:21:00.290Z,4.30
2022-09-25T14:26:07.273Z,4.53
2022-09-25T14:31:39.711Z,3.90
2022-09-25T14:37:00.427Z,4.20
2022-09-25T14:42:26.659Z,3.40
2022-09-25T14:47:33.770Z,2.57
2022-09-25T14:52:35.694Z,2.70
2022-09-25T14:57:39.586Z,2.50
2022-09-25T15:02:42.490Z,1.70
2022-09-25T15:07:44.527Z,3.00
2022-09-25T15:12:46.215Z,2.03
2022-09-25T15:17:53.296Z,1.60
2022-09-25T15:22:56.913Z,1.80
2022-09-25T15:27:59.314Z,1.90
2022-09-25T15:33:01.316Z,1.63
2022-09-25T15:38:08.242Z,2.30
2022-09-25T15:43:14.076Z,2.93
2022-09-25T15:48:32.832Z,2.40
2022-09-25T15:53:44.873Z,3.20
2022-09-25T15:59:16.751Z,2.70
2022-09-25T16:04:40.473Z,2.90
2022-09-25T16:09:42.099Z,3.30
2022-09-25T16:14:43.755Z,2.53
2022-09-25T16:19:45.401Z,2.43
2022-09-25T16:24:50.803Z,3.30
2022-09-25T16:29:52.516Z,3.40
2022-09-25T16:35:01.322Z,3.07
2022-09-25T16:40:20.699Z,2.90
2022-09-25T16:45:29.390Z,2.97
2022-09-25T16:50:33.310Z,13.60
2022-09-25T16:55:47.345Z,5.50
2022-09-25T17:00:49.615Z,5.20
2022-09-25T17:05:51.308Z,7.60
2022-09-25T17:10:53.039Z,7.20
2022-09-25T17:15:56.566Z,9.30
2022-09-25T17:20:59.665Z,8.10
2022-09-25T17:26:06.562Z,8.07
2022-09-25T17:31:12.403Z,7.60
2022-09-25T17:36:14.235Z,9.87
2022-09-25T17:41:25.964Z,9.13
2022-09-25T17:46:27.735Z,8.80
2022-09-25T17:51:29.938Z,8.30
2022-09-25T17:56:31.633Z,7.50
2022-09-25T18:01:38.866Z,9.37
2022-09-25T18:06:43.442Z,7.70
2022-09-25T18:11:45.235Z,8.57
2022-09-25T18:16:46.939Z,9.90
2022-09-25T18:22:07.265Z,11.00
2022-09-25T18:27:09.147Z,12.67
2022-09-25T18:32:10.840Z,13.80
2022-09-25T18:37:12.662Z,15.17
2022-09-25T18:42:14.458Z,16.67
2022-09-25T18:47:16.214Z,16.20
2022-09-25T18:52:17.907Z,17.27
2022-09-25T18:57:19.564Z,21.53
2022-09-25T19:02:21.267Z,18.30
2022-09-25T19:07:27.230Z,18.73
2022-09-25T19:12:28.994Z,16.30
2022-09-25T19:17:31.100Z,21.77
2022-09-25T19:22:33.511Z,21.00
2022-09-25T19:27:35.336Z,22.17
2022-09-25T19:32:37.422Z,18.47
2022-09-25T19:37:39.195Z,16.73
2022-09-25T19:42:40.840Z,15.00
2022-09-25T19:47:42.522Z,12.77
2022-09-25T19:52:47.665Z,12.30
2022-09-25T19:57:52.970Z,10.67
2022-09-25T20:02:54.682Z,10.00
2022-09-25T20:07:56.412Z,9.77
2022-09-25T20:12:58.154Z,11.00
2022-09-25T20:17:59.910Z,10.43
2022-09-25T20:23:01.599Z,11.00
2022-09-25T20:28:03.298Z,9.57
2022-09-25T20:33:04.913Z,9.30
2022-09-25T20:38:10.974Z,10.50
2022-09-25T20:43:12.763Z,12.30
2022-09-25T20:48:18.050Z,14.63
2022-09-25T20:53:19.689Z,16.50
2022-09-25T20:58:21.371Z,17.13
2022-09-25T21:03:23.009Z,20.50
2022-09-25T21:08:25.770Z,20.00
2022-09-25T21:13:33.902Z,19.07
2022-09-25T21:18:36.041Z,17.80
2022-09-25T21:23:37.662Z,17.67
2022-09-25T21:28:40.413Z,15.10
2022-09-25T21:33:42.200Z,12.83
2022-09-25T21:38:43.836Z,13.30
2022-09-25T21:43:45.632Z,11.60
2022-09-25T21:48:58.092Z,10.13
2022-09-25T21:54:00.938Z,8.93
2022-09-25T21:59:08.723Z,8.53
2022-09-25T22:04:12.292Z,8.10
2022-09-25T22:09:18.883Z,9.70
2022-09-25T22:14:20.606Z,8.73
2022-09-25T22:19:27.047Z,10.00
2022-09-25T22:24:28.728Z,8.80
2022-09-25T22:29:30.835Z,9.60
2022-09-25T22:34:32.473Z,9.30
2022-09-25T22:39:34.107Z,8.83
2022-09-25T22:44:35.734Z,8.07
2022-09-25T22:49:37.368Z,9.57
2022-09-25T22:54:38.980Z,9.03
2022-09-25T22:59:40.591Z,7.63
2022-09-25T23:04:42.382Z,7.47
2022-09-25T23:09:44.150Z,7.80
2022-09-25T23:14:46.209Z,7.83
2022-09-25T23:19:47.881Z,6.80
2022-09-25T23:24:49.526Z,5.97
2022-09-25T23:29:51.149Z,7.30
2022-09-25T23:34:52.775Z,6.67
2022-09-25T23:39:54.400Z,6.50
2022-09-25T23:44:56.372Z,6.90
2022-09-25T23:50:03.505Z,7.07
2022-09-25T23:55:06.515Z,7.70
